Airfield :
LOGIN :

Register | Disclaimer

   EN    FR    IT 

 










Legend :    VFR   Marginal VFR   IFR   Intensive IFR   Very Intensive IFR
Visi :
Ceiling :
>= 8 km
>= 3000ft
5 to 8 km
1000 to 3000 ft
1500m to 5 km
500 to 1000 ft
800 to 1500m
200 to 500 ft
< 800m
< 200 ft
Symbols :   Thunderstorms  Fog  Heavy snow  Heavy precipitations  Wind > 20 kt
SIGMETs :     Misc.  Thunderstorms  Icing  Turbulence  Mountain Waves  Volcanic Ashes







- Airport Elevation : 302 ft
- IATA code : CGN


EDDK - Cologne Bonn

CURRENT METAR :
  • 212220Z 07001KT CAVOK 10/09 Q1020 NOSIG

EXPIRED METARs :
  • 212150Z 06003KT CAVOK 11/10 Q1020 NOSIG
  • 212120Z 09003KT 050V130 CAVOK 12/10 Q1020 NOSIG
  • 212050Z 11004KT 060V150 CAVOK 13/10 Q1020 NOSIG
  • 212020Z 10004KT 060V140 CAVOK 13/10 Q1020 NOSIG
  • 211950Z 11004KT 050V140 CAVOK 13/11 Q1020 NOSIG

TAF TAF EDDK
Valid from the 21 at 18:00 until the 23 at 00:00 UTC


211700Z 2118/2224 13005KT 9999 FEW045
BECMG 2210/2214 30003KT
No reported NOTAMs for that airfield.



MET'MAP, your aeronautical weather chart ! - Copyright ORBIFLY December 2007 - Disclaimer

ORBIFLY MET'MAP TEAM :

Programming & Development : Alexandra Zaïnal
Concept & Development : Baudouin d'Aumeries
Co-Development & Prog : Marc-Olivier Méhu
Technical & hardware support : Manuel Goepfert

Contact : metmap@orbifly.com




SOURCES & CREDITS :

   NOAA